CheckWX is a tool to help pilots better visualize weather data.  It is not intended as a substitute for an official pre-flight weather briefing.

06:45:48 UTC

CYXE METAR
Saskatoon John G. Diefenbaker International Airport
Saskatoon, Canada
Current

46 mins ago

CYXE 210600Z 11008KT 15SM SCT280 10/M02 A3004 RMK CI3 SLP185
Observed
May-21 @ 06:00 UTC
Wind
  • 110° at 8 KTS
Visibility
15 SM
Flight Rules
VFR
Cloud Levels
  • Scattered at 28,000' AGL
Temperature
10°C / 50°F
Dewpoint
-2°C / 28°F
Humidity
43%
Altimeter
30.04" Hg
Pressure
1017.32 hPa
Previous

2 hours ago

CYXE 210500Z 11009KT 15SM FEW100 FEW280 10/M02 A3004 RMK AC1CI1 AC TR CI TR SLP185
Observed
May-21 @ 05:00 UTC
Wind
  • 110° at 9 KTS
Visibility
15 SM
Flight Rules
VFR
Cloud Levels
  • Few at 10,000' AGL
  • Few at 28,000' AGL
Temperature
10°C / 50°F
Dewpoint
-2°C / 28°F
Humidity
43%
Altimeter
30.04" Hg
Pressure
1017.32 hPa
Previous

3 hours ago

CYXE 210400Z 11008KT 15SM FEW100 FEW280 11/M03 A3005 RMK AC1CI1 AC TR CI TR SLP187
Observed
May-21 @ 04:00 UTC
Wind
  • 110° at 8 KTS
Visibility
15 SM
Flight Rules
VFR
Cloud Levels
  • Few at 10,000' AGL
  • Few at 28,000' AGL
Temperature
11°C / 52°F
Dewpoint
-3°C / 27°F
Humidity
38%
Altimeter
30.05" Hg
Pressure
1017.62 hPa